sensor_id;sensor_type;location;lat;lon;timestamp;temperature;humidity
35804;DHT22;21924;51.934;7.414;2022-08-01T00:01:14;18.90;99.90
35804;DHT22;21924;51.934;7.414;2022-08-01T00:03:58;18.90;99.90
35804;DHT22;21924;51.934;7.414;2022-08-01T00:06:43;18.90;99.90
35804;DHT22;21924;51.934;7.414;2022-08-01T00:09:27;18.90;99.90
35804;DHT22;21924;51.934;7.414;2022-08-01T00:12:11;18.90;99.90
35804;DHT22;21924;51.934;7.414;2022-08-01T00:14:55;19.00;99.90
35804;DHT22;21924;51.934;7.414;2022-08-01T00:17:39;18.80;99.90
35804;DHT22;21924;51.934;7.414;2022-08-01T00:20:24;18.90;99.90
35804;DHT22;21924;51.934;7.414;2022-08-01T00:23:08;18.80;99.90
35804;DHT22;21924;51.934;7.414;2022-08-01T00:25:52;18.80;99.90
35804;DHT22;21924;51.934;7.414;2022-08-01T00:28:36;18.70;99.90
35804;DHT22;21924;51.934;7.414;2022-08-01T00:31:20;18.70;99.90
35804;DHT22;21924;51.934;7.414;2022-08-01T00:34:04;18.70;99.90
35804;DHT22;21924;51.934;7.414;2022-08-01T00:36:48;18.70;99.90
35804;DHT22;21924;51.934;7.414;2022-08-01T00:39:32;18.70;99.90
35804;DHT22;21924;51.934;7.414;2022-08-01T00:42:17;18.70;99.90
35804;DHT22;21924;51.934;7.414;2022-08-01T00:45:02;18.60;99.90
35804;DHT22;21924;51.934;7.414;2022-08-01T00:47:46;18.60;99.90
35804;DHT22;21924;51.934;7.414;2022-08-01T00:50:30;18.60;99.90
35804;DHT22;21924;51.934;7.414;2022-08-01T00:53:14;18.50;99.90
35804;DHT22;21924;51.934;7.414;2022-08-01T00:55:59;18.50;99.90
35804;DHT22;21924;51.934;7.414;2022-08-01T00:58:43;18.50;99.90
35804;DHT22;21924;51.934;7.414;2022-08-01T01:01:27;18.50;99.90
35804;DHT22;21924;51.934;7.414;2022-08-01T01:04:11;18.50;99.90
35804;DHT22;21924;51.934;7.414;2022-08-01T01:07:04;18.50;99.90
35804;DHT22;21924;51.934;7.414;2022-08-01T01:09:50;18.50;99.90
35804;DHT22;21924;51.934;7.414;2022-08-01T01:15:49;18.40;99.90
35804;DHT22;21924;51.934;7.414;2022-08-01T01:18:45;18.40;99.90
35804;DHT22;21924;51.934;7.414;2022-08-01T01:22:13;18.40;99.90
35804;DHT22;21924;51.934;7.414;2022-08-01T01:24:39;18.40;99.90
35804;DHT22;21924;51.934;7.414;2022-08-01T01:27:28;18.30;99.90
35804;DHT22;21924;51.934;7.414;2022-08-01T01:30:18;18.30;99.90
35804;DHT22;21924;51.934;7.414;2022-08-01T01:33:02;18.30;99.90
35804;DHT22;21924;51.934;7.414;2022-08-01T01:35:47;18.30;99.90
35804;DHT22;21924;51.934;7.414;2022-08-01T01:38:34;18.20;99.90
35804;DHT22;21924;51.934;7.414;2022-08-01T01:41:19;18.20;99.90
35804;DHT22;21924;51.934;7.414;2022-08-01T01:44:04;18.30;99.90
35804;DHT22;21924;51.934;7.414;2022-08-01T01:46:48;18.20;99.90
35804;DHT22;21924;51.934;7.414;2022-08-01T01:49:34;18.20;99.90
35804;DHT22;21924;51.934;7.414;2022-08-01T01:52:18;18.20;99.90
35804;DHT22;21924;51.934;7.414;2022-08-01T01:55:05;18.20;99.90
35804;DHT22;21924;51.934;7.414;2022-08-01T01:57:49;18.20;99.90
35804;DHT22;21924;51.934;7.414;2022-08-01T02:00:34;18.20;99.90
35804;DHT22;21924;51.934;7.414;2022-08-01T02:03:19;18.20;99.90
35804;DHT22;21924;51.934;7.414;2022-08-01T02:06:03;18.20;99.90
35804;DHT22;21924;51.934;7.414;2022-08-01T02:08:48;18.20;99.90
35804;DHT22;21924;51.934;7.414;2022-08-01T02:11:32;18.20;99.90
35804;DHT22;21924;51.934;7.414;2022-08-01T02:14:17;18.20;99.90
35804;DHT22;21924;51.934;7.414;2022-08-01T02:17:02;18.20;99.90
35804;DHT22;21924;51.934;7.414;2022-08-01T02:19:48;18.20;99.90
35804;DHT22;21924;51.934;7.414;2022-08-01T02:22:33;18.10;99.90
35804;DHT22;21924;51.934;7.414;2022-08-01T02:25:21;18.10;99.90
35804;DHT22;21924;51.934;7.414;2022-08-01T02:28:15;18.10;99.90
35804;DHT22;21924;51.934;7.414;2022-08-01T02:31:01;18.10;99.90
35804;DHT22;21924;51.934;7.414;2022-08-01T02:33:49;18.10;99.90
35804;DHT22;21924;51.934;7.414;2022-08-01T02:36:34;18.10;99.90
35804;DHT22;21924;51.934;7.414;2022-08-01T02:39:19;18.10;99.90
35804;DHT22;21924;51.934;7.414;2022-08-01T02:42:06;18.00;99.90
35804;DHT22;21924;51.934;7.414;2022-08-01T02:44:51;18.10;99.90
35804;DHT22;21924;51.934;7.414;2022-08-01T02:47:36;18.10;99.90
35804;DHT22;21924;51.934;7.414;2022-08-01T02:50:21;18.10;99.90
35804;DHT22;21924;51.934;7.414;2022-08-01T02:53:07;18.00;99.90
35804;DHT22;21924;51.934;7.414;2022-08-01T02:55:54;18.00;99.90
35804;DHT22;21924;51.934;7.414;2022-08-01T02:58:39;18.00;99.90
35804;DHT22;21924;51.934;7.414;2022-08-01T03:01:24;18.00;99.90
35804;DHT22;21924;51.934;7.414;2022-08-01T03:04:08;18.00;99.90
35804;DHT22;21924;51.934;7.414;2022-08-01T03:06:53;18.00;99.90
35804;DHT22;21924;51.934;7.414;2022-08-01T03:09:42;18.00;99.90
35804;DHT22;21924;51.934;7.414;2022-08-01T03:12:27;17.90;99.90
35804;DHT22;21924;51.934;7.414;2022-08-01T03:15:13;18.00;99.90
35804;DHT22;21924;51.934;7.414;2022-08-01T03:17:58;18.00;99.90
35804;DHT22;21924;51.934;7.414;2022-08-01T03:20:43;18.00;99.90
35804;DHT22;21924;51.934;7.414;2022-08-01T03:23:28;18.00;99.90
35804;DHT22;21924;51.934;7.414;2022-08-01T03:26:13;18.00;99.90
35804;DHT22;21924;51.934;7.414;2022-08-01T03:28:59;18.00;99.90
35804;DHT22;21924;51.934;7.414;2022-08-01T03:31:46;18.00;99.90
35804;DHT22;21924;51.934;7.414;2022-08-01T03:34:31;18.00;99.90
35804;DHT22;21924;51.934;7.414;2022-08-01T03:40:40;18.00;99.90
35804;DHT22;21924;51.934;7.414;2022-08-01T03:46:13;18.00;99.90
35804;DHT22;21924;51.934;7.414;2022-08-01T03:49:03;18.00;99.90
35804;DHT22;21924;51.934;7.414;2022-08-01T03:51:49;18.00;99.90
35804;DHT22;21924;51.934;7.414;2022-08-01T03:54:35;18.00;99.90
35804;DHT22;21924;51.934;7.414;2022-08-01T03:57:19;17.90;99.90
35804;DHT22;21924;51.934;7.414;2022-08-01T04:00:04;18.00;99.90
35804;DHT22;21924;51.934;7.414;2022-08-01T04:02:53;17.90;99.90
35804;DHT22;21924;51.934;7.414;2022-08-01T04:05:37;18.00;99.90
35804;DHT22;21924;51.934;7.414;2022-08-01T04:08:33;17.90;99.90
35804;DHT22;21924;51.934;7.414;2022-08-01T04:11:17;17.90;99.90
35804;DHT22;21924;51.934;7.414;2022-08-01T04:14:01;17.90;99.90
35804;DHT22;21924;51.934;7.414;2022-08-01T04:16:45;18.00;99.90
35804;DHT22;21924;51.934;7.414;2022-08-01T04:19:29;17.90;99.90
35804;DHT22;21924;51.934;7.414;2022-08-01T04:22:14;17.80;99.90
35804;DHT22;21924;51.934;7.414;2022-08-01T04:24:58;17.90;99.90
35804;DHT22;21924;51.934;7.414;2022-08-01T04:27:46;17.90;99.90
35804;DHT22;21924;51.934;7.414;2022-08-01T04:30:33;18.00;99.90
35804;DHT22;21924;51.934;7.414;2022-08-01T04:33:18;18.00;99.90
35804;DHT22;21924;51.934;7.414;2022-08-01T04:36:03;18.00;99.90
35804;DHT22;21924;51.934;7.414;2022-08-01T04:38:48;18.00;99.90
35804;DHT22;21924;51.934;7.414;2022-08-01T04:41:34;18.00;99.90
35804;DHT22;21924;51.934;7.414;2022-08-01T04:44:19;18.00;99.90
35804;DHT22;21924;51.934;7.414;2022-08-01T04:47:03;18.00;99.90
35804;DHT22;21924;51.934;7.414;2022-08-01T04:49:48;18.00;99.90
35804;DHT22;21924;51.934;7.414;2022-08-01T04:52:34;18.00;99.90
35804;DHT22;21924;51.934;7.414;2022-08-01T04:55:18;18.10;99.90
35804;DHT22;21924;51.934;7.414;2022-08-01T04:58:02;18.10;99.90
35804;DHT22;21924;51.934;7.414;2022-08-01T05:00:46;18.10;99.90
35804;DHT22;21924;51.934;7.414;2022-08-01T05:03:30;18.10;99.90
35804;DHT22;21924;51.934;7.414;2022-08-01T05:06:15;18.10;99.90
35804;DHT22;21924;51.934;7.414;2022-08-01T05:08:59;18.10;99.90
35804;DHT22;21924;51.934;7.414;2022-08-01T05:11:43;18.20;99.90
35804;DHT22;21924;51.934;7.414;2022-08-01T05:14:27;18.20;99.90
35804;DHT22;21924;51.934;7.414;2022-08-01T05:17:12;18.20;99.90
35804;DHT22;21924;51.934;7.414;2022-08-01T05:19:56;18.30;99.90
35804;DHT22;21924;51.934;7.414;2022-08-01T05:22:40;18.30;99.90
35804;DHT22;21924;51.934;7.414;2022-08-01T05:25:24;18.30;99.90
35804;DHT22;21924;51.934;7.414;2022-08-01T05:28:08;18.40;99.90
35804;DHT22;21924;51.934;7.414;2022-08-01T05:30:53;18.40;99.90
35804;DHT22;21924;51.934;7.414;2022-08-01T05:33:38;18.40;99.90
35804;DHT22;21924;51.934;7.414;2022-08-01T05:36:22;18.40;99.90
35804;DHT22;21924;51.934;7.414;2022-08-01T05:39:06;18.50;99.90
35804;DHT22;21924;51.934;7.414;2022-08-01T05:41:50;18.50;99.90
35804;DHT22;21924;51.934;7.414;2022-08-01T05:44:34;18.60;99.90
35804;DHT22;21924;51.934;7.414;2022-08-01T05:47:19;18.60;99.90
35804;DHT22;21924;51.934;7.414;2022-08-01T05:50:03;18.80;99.90
35804;DHT22;21924;51.934;7.414;2022-08-01T05:52:47;18.80;99.90
35804;DHT22;21924;51.934;7.414;2022-08-01T05:55:31;18.70;99.90
35804;DHT22;21924;51.934;7.414;2022-08-01T05:58:15;18.70;99.90
35804;DHT22;21924;51.934;7.414;2022-08-01T06:00:59;18.70;99.90
35804;DHT22;21924;51.934;7.414;2022-08-01T06:03:43;18.60;99.90
35804;DHT22;21924;51.934;7.414;2022-08-01T06:06:27;18.60;99.90
35804;DHT22;21924;51.934;7.414;2022-08-01T06:09:12;18.50;99.90
35804;DHT22;21924;51.934;7.414;2022-08-01T06:11:56;18.40;99.90
35804;DHT22;21924;51.934;7.414;2022-08-01T06:14:40;18.40;99.90
35804;DHT22;21924;51.934;7.414;2022-08-01T06:17:24;18.40;99.90
35804;DHT22;21924;51.934;7.414;2022-08-01T06:20:08;18.40;99.90
35804;DHT22;21924;51.934;7.414;2022-08-01T06:22:52;18.40;99.90
35804;DHT22;21924;51.934;7.414;2022-08-01T06:25:36;18.50;99.90
35804;DHT22;21924;51.934;7.414;2022-08-01T06:28:23;18.50;99.90
35804;DHT22;21924;51.934;7.414;2022-08-01T06:31:07;18.60;99.90
35804;DHT22;21924;51.934;7.414;2022-08-01T06:33:53;18.70;99.90
35804;DHT22;21924;51.934;7.414;2022-08-01T06:36:39;18.70;99.90
35804;DHT22;21924;51.934;7.414;2022-08-01T06:39:23;18.70;99.90
35804;DHT22;21924;51.934;7.414;2022-08-01T06:42:07;18.70;99.90
35804;DHT22;21924;51.934;7.414;2022-08-01T06:44:51;18.80;99.90
35804;DHT22;21924;51.934;7.414;2022-08-01T06:47:35;18.90;99.90
35804;DHT22;21924;51.934;7.414;2022-08-01T06:50:20;19.00;99.90
35804;DHT22;21924;51.934;7.414;2022-08-01T06:53:04;19.10;99.90
35804;DHT22;21924;51.934;7.414;2022-08-01T06:55:48;19.10;99.90
35804;DHT22;21924;51.934;7.414;2022-08-01T06:58:32;19.20;99.90
35804;DHT22;21924;51.934;7.414;2022-08-01T07:01:18;19.20;99.90
35804;DHT22;21924;51.934;7.414;2022-08-01T07:04:02;19.10;99.90
35804;DHT22;21924;51.934;7.414;2022-08-01T07:06:46;19.20;99.90
35804;DHT22;21924;51.934;7.414;2022-08-01T07:09:30;19.30;99.90
35804;DHT22;21924;51.934;7.414;2022-08-01T07:12:14;19.40;99.90
35804;DHT22;21924;51.934;7.414;2022-08-01T07:14:58;19.50;99.90
35804;DHT22;21924;51.934;7.414;2022-08-01T07:17:42;19.60;99.90
35804;DHT22;21924;51.934;7.414;2022-08-01T07:20:26;19.50;99.90
35804;DHT22;21924;51.934;7.414;2022-08-01T07:23:10;19.50;99.90
35804;DHT22;21924;51.934;7.414;2022-08-01T07:25:55;19.40;99.90
35804;DHT22;21924;51.934;7.414;2022-08-01T07:28:39;19.20;99.90
35804;DHT22;21924;51.934;7.414;2022-08-01T07:31:23;19.20;99.90
35804;DHT22;21924;51.934;7.414;2022-08-01T07:34:07;19.20;99.90
35804;DHT22;21924;51.934;7.414;2022-08-01T07:36:51;19.10;99.90
35804;DHT22;21924;51.934;7.414;2022-08-01T07:39:35;19.20;99.90
35804;DHT22;21924;51.934;7.414;2022-08-01T07:42:19;19.20;99.90
35804;DHT22;21924;51.934;7.414;2022-08-01T07:45:03;19.20;99.90
35804;DHT22;21924;51.934;7.414;2022-08-01T07:47:47;19.30;99.90
35804;DHT22;21924;51.934;7.414;2022-08-01T07:50:33;19.30;99.90
35804;DHT22;21924;51.934;7.414;2022-08-01T07:53:17;19.30;99.90
35804;DHT22;21924;51.934;7.414;2022-08-01T07:56:02;19.20;99.90
35804;DHT22;21924;51.934;7.414;2022-08-01T07:58:48;19.20;99.90
35804;DHT22;21924;51.934;7.414;2022-08-01T08:01:32;19.20;99.90
35804;DHT22;21924;51.934;7.414;2022-08-01T08:04:17;19.10;99.90
35804;DHT22;21924;51.934;7.414;2022-08-01T08:07:01;19.00;99.90
35804;DHT22;21924;51.934;7.414;2022-08-01T08:09:45;19.00;99.90
35804;DHT22;21924;51.934;7.414;2022-08-01T08:12:29;19.00;99.90
35804;DHT22;21924;51.934;7.414;2022-08-01T08:15:13;18.90;99.90
35804;DHT22;21924;51.934;7.414;2022-08-01T08:17:57;18.90;99.90
35804;DHT22;21924;51.934;7.414;2022-08-01T08:20:43;18.90;99.90
35804;DHT22;21924;51.934;7.414;2022-08-01T08:23:27;18.90;99.90
35804;DHT22;21924;51.934;7.414;2022-08-01T08:26:30;18.90;99.90
35804;DHT22;21924;51.934;7.414;2022-08-01T08:29:14;18.90;99.90
35804;DHT22;21924;51.934;7.414;2022-08-01T08:31:59;18.90;99.90
35804;DHT22;21924;51.934;7.414;2022-08-01T08:34:44;18.90;99.90
35804;DHT22;21924;51.934;7.414;2022-08-01T08:37:28;18.90;99.90
35804;DHT22;21924;51.934;7.414;2022-08-01T08:40:12;18.80;99.90
35804;DHT22;21924;51.934;7.414;2022-08-01T08:42:56;18.70;99.90
35804;DHT22;21924;51.934;7.414;2022-08-01T08:45:41;18.70;99.90
35804;DHT22;21924;51.934;7.414;2022-08-01T08:48:26;18.80;99.90
35804;DHT22;21924;51.934;7.414;2022-08-01T08:51:11;18.90;99.90
35804;DHT22;21924;51.934;7.414;2022-08-01T08:53:55;18.80;99.90
35804;DHT22;21924;51.934;7.414;2022-08-01T08:56:40;18.80;99.90
35804;DHT22;21924;51.934;7.414;2022-08-01T08:59:25;18.80;99.90
35804;DHT22;21924;51.934;7.414;2022-08-01T09:02:10;18.90;99.90
35804;DHT22;21924;51.934;7.414;2022-08-01T09:04:55;19.00;99.90
35804;DHT22;21924;51.934;7.414;2022-08-01T09:07:39;19.10;99.90
35804;DHT22;21924;51.934;7.414;2022-08-01T09:10:23;19.10;99.90
35804;DHT22;21924;51.934;7.414;2022-08-01T09:13:11;19.10;99.90
35804;DHT22;21924;51.934;7.414;2022-08-01T09:15:56;19.00;99.90
35804;DHT22;21924;51.934;7.414;2022-08-01T09:18:42;18.80;99.90
35804;DHT22;21924;51.934;7.414;2022-08-01T09:21:28;18.70;99.90
35804;DHT22;21924;51.934;7.414;2022-08-01T09:24:15;18.60;99.90
35804;DHT22;21924;51.934;7.414;2022-08-01T09:27:00;18.40;99.90
35804;DHT22;21924;51.934;7.414;2022-08-01T09:29:45;18.40;99.90
35804;DHT22;21924;51.934;7.414;2022-08-01T09:32:29;18.40;99.90
35804;DHT22;21924;51.934;7.414;2022-08-01T09:35:23;18.40;99.90
35804;DHT22;21924;51.934;7.414;2022-08-01T09:38:15;18.40;99.90
35804;DHT22;21924;51.934;7.414;2022-08-01T09:40:59;18.50;99.90
35804;DHT22;21924;51.934;7.414;2022-08-01T09:43:50;18.70;99.90
35804;DHT22;21924;51.934;7.414;2022-08-01T09:46:34;18.80;99.90
35804;DHT22;21924;51.934;7.414;2022-08-01T09:49:27;18.80;99.90
35804;DHT22;21924;51.934;7.414;2022-08-01T09:54:56;18.90;99.90
35804;DHT22;21924;51.934;7.414;2022-08-01T09:57:41;19.00;99.90
35804;DHT22;21924;51.934;7.414;2022-08-01T10:00:38;19.00;99.90
35804;DHT22;21924;51.934;7.414;2022-08-01T10:03:24;19.10;99.90
35804;DHT22;21924;51.934;7.414;2022-08-01T10:06:21;19.10;99.90
35804;DHT22;21924;51.934;7.414;2022-08-01T10:09:05;19.00;99.90
35804;DHT22;21924;51.934;7.414;2022-08-01T10:11:49;19.00;99.90
35804;DHT22;21924;51.934;7.414;2022-08-01T10:14:33;18.80;99.90
35804;DHT22;21924;51.934;7.414;2022-08-01T10:17:18;18.90;99.90
35804;DHT22;21924;51.934;7.414;2022-08-01T10:20:03;19.00;99.90
35804;DHT22;21924;51.934;7.414;2022-08-01T10:22:48;19.20;99.90
35804;DHT22;21924;51.934;7.414;2022-08-01T10:25:34;19.40;99.90
35804;DHT22;21924;51.934;7.414;2022-08-01T10:28:18;19.50;99.90
35804;DHT22;21924;51.934;7.414;2022-08-01T10:31:04;19.70;99.90
35804;DHT22;21924;51.934;7.414;2022-08-01T10:33:49;19.70;99.90
35804;DHT22;21924;51.934;7.414;2022-08-01T10:36:34;19.90;99.90
35804;DHT22;21924;51.934;7.414;2022-08-01T10:39:22;20.00;99.90
35804;DHT22;21924;51.934;7.414;2022-08-01T10:42:07;20.20;99.90
35804;DHT22;21924;51.934;7.414;2022-08-01T10:44:53;20.40;99.90
35804;DHT22;21924;51.934;7.414;2022-08-01T10:47:40;20.60;99.90
35804;DHT22;21924;51.934;7.414;2022-08-01T10:50:33;20.80;99.90
35804;DHT22;21924;51.934;7.414;2022-08-01T10:53:22;20.80;99.90
35804;DHT22;21924;51.934;7.414;2022-08-01T10:56:07;20.80;99.90
35804;DHT22;21924;51.934;7.414;2022-08-01T10:59:00;20.70;99.90
35804;DHT22;21924;51.934;7.414;2022-08-01T11:01:44;20.70;99.90
35804;DHT22;21924;51.934;7.414;2022-08-01T11:07:38;20.70;99.90
35804;DHT22;21924;51.934;7.414;2022-08-01T11:10:26;20.70;99.90
35804;DHT22;21924;51.934;7.414;2022-08-01T11:13:12;20.70;99.90
35804;DHT22;21924;51.934;7.414;2022-08-01T11:15:56;20.60;99.90
35804;DHT22;21924;51.934;7.414;2022-08-01T11:19:01;20.50;99.90
35804;DHT22;21924;51.934;7.414;2022-08-01T11:27:30;19.90;99.90
35804;DHT22;21924;51.934;7.414;2022-08-01T11:32:59;19.70;99.90
35804;DHT22;21924;51.934;7.414;2022-08-01T11:39:09;19.80;99.90
35804;DHT22;21924;51.934;7.414;2022-08-01T11:41:54;20.00;99.90
35804;DHT22;21924;51.934;7.414;2022-08-01T11:44:48;20.20;99.90
35804;DHT22;21924;51.934;7.414;2022-08-01T11:47:45;20.30;99.90
35804;DHT22;21924;51.934;7.414;2022-08-01T11:50:33;20.30;99.90
35804;DHT22;21924;51.934;7.414;2022-08-01T11:53:18;20.30;99.90
35804;DHT22;21924;51.934;7.414;2022-08-01T11:56:03;20.40;99.90
35804;DHT22;21924;51.934;7.414;2022-08-01T11:58:48;20.40;99.90
35804;DHT22;21924;51.934;7.414;2022-08-01T12:01:34;20.50;99.90
35804;DHT22;21924;51.934;7.414;2022-08-01T12:04:17;20.60;99.90
35804;DHT22;21924;51.934;7.414;2022-08-01T12:07:11;20.60;99.90
35804;DHT22;21924;51.934;7.414;2022-08-01T12:09:56;20.70;99.90
35804;DHT22;21924;51.934;7.414;2022-08-01T12:12:42;20.80;99.90
35804;DHT22;21924;51.934;7.414;2022-08-01T12:15:30;21.00;99.90
35804;DHT22;21924;51.934;7.414;2022-08-01T12:18:15;21.10;99.90
35804;DHT22;21924;51.934;7.414;2022-08-01T12:21:02;21.60;99.90
35804;DHT22;21924;51.934;7.414;2022-08-01T12:23:59;22.00;99.90
35804;DHT22;21924;51.934;7.414;2022-08-01T12:26:43;22.10;99.90
35804;DHT22;21924;51.934;7.414;2022-08-01T12:29:37;22.40;99.90
35804;DHT22;21924;51.934;7.414;2022-08-01T12:35:19;22.80;99.90
35804;DHT22;21924;51.934;7.414;2022-08-01T12:38:07;22.80;99.90
35804;DHT22;21924;51.934;7.414;2022-08-01T12:40:57;22.60;99.90
35804;DHT22;21924;51.934;7.414;2022-08-01T12:43:42;22.40;99.90
35804;DHT22;21924;51.934;7.414;2022-08-01T12:46:26;22.20;99.90
35804;DHT22;21924;51.934;7.414;2022-08-01T12:49:11;22.20;99.90
35804;DHT22;21924;51.934;7.414;2022-08-01T12:51:55;22.30;99.90
35804;DHT22;21924;51.934;7.414;2022-08-01T12:57:44;22.80;99.90
35804;DHT22;21924;51.934;7.414;2022-08-01T13:00:29;22.90;99.90
35804;DHT22;21924;51.934;7.414;2022-08-01T13:03:14;23.30;99.90
35804;DHT22;21924;51.934;7.414;2022-08-01T13:05:59;23.50;99.90
35804;DHT22;21924;51.934;7.414;2022-08-01T13:08:44;24.00;99.90
35804;DHT22;21924;51.934;7.414;2022-08-01T13:11:28;24.20;99.90
35804;DHT22;21924;51.934;7.414;2022-08-01T13:14:28;24.40;99.90
35804;DHT22;21924;51.934;7.414;2022-08-01T13:17:28;24.40;99.90
35804;DHT22;21924;51.934;7.414;2022-08-01T13:20:29;24.30;99.90
35804;DHT22;21924;51.934;7.414;2022-08-01T13:23:14;24.00;99.90
35804;DHT22;21924;51.934;7.414;2022-08-01T13:25:59;24.00;99.90
35804;DHT22;21924;51.934;7.414;2022-08-01T13:28:43;24.10;99.90
35804;DHT22;21924;51.934;7.414;2022-08-01T13:31:32;24.10;99.90
35804;DHT22;21924;51.934;7.414;2022-08-01T13:34:16;24.00;99.90
35804;DHT22;21924;51.934;7.414;2022-08-01T13:37:01;23.70;99.90
35804;DHT22;21924;51.934;7.414;2022-08-01T13:39:45;23.30;99.90
35804;DHT22;21924;51.934;7.414;2022-08-01T13:42:31;23.20;99.90
35804;DHT22;21924;51.934;7.414;2022-08-01T13:45:16;23.40;99.90
35804;DHT22;21924;51.934;7.414;2022-08-01T13:48:00;23.40;99.90
35804;DHT22;21924;51.934;7.414;2022-08-01T13:50:44;23.10;99.90
35804;DHT22;21924;51.934;7.414;2022-08-01T13:53:28;23.30;99.90
35804;DHT22;21924;51.934;7.414;2022-08-01T13:56:13;23.80;99.90
35804;DHT22;21924;51.934;7.414;2022-08-01T13:58:57;24.40;99.90
35804;DHT22;21924;51.934;7.414;2022-08-01T14:01:41;24.80;99.90
35804;DHT22;21924;51.934;7.414;2022-08-01T14:04:25;24.80;99.90
35804;DHT22;21924;51.934;7.414;2022-08-01T14:07:10;24.50;99.90
35804;DHT22;21924;51.934;7.414;2022-08-01T14:09:54;24.50;99.90
35804;DHT22;21924;51.934;7.414;2022-08-01T14:12:38;24.80;99.90
35804;DHT22;21924;51.934;7.414;2022-08-01T14:15:22;25.30;99.90
35804;DHT22;21924;51.934;7.414;2022-08-01T14:18:07;25.60;99.90
35804;DHT22;21924;51.934;7.414;2022-08-01T14:20:51;25.90;99.90
35804;DHT22;21924;51.934;7.414;2022-08-01T14:23:35;25.90;99.90
35804;DHT22;21924;51.934;7.414;2022-08-01T14:26:19;26.20;99.90
35804;DHT22;21924;51.934;7.414;2022-08-01T14:29:03;26.80;99.90
35804;DHT22;21924;51.934;7.414;2022-08-01T14:31:47;26.90;99.90
35804;DHT22;21924;51.934;7.414;2022-08-01T14:34:31;26.90;99.90
35804;DHT22;21924;51.934;7.414;2022-08-01T14:37:15;26.80;99.90
35804;DHT22;21924;51.934;7.414;2022-08-01T14:40:00;26.30;99.90
35804;DHT22;21924;51.934;7.414;2022-08-01T14:42:47;25.70;99.90
35804;DHT22;21924;51.934;7.414;2022-08-01T14:45:32;24.70;99.90
35804;DHT22;21924;51.934;7.414;2022-08-01T14:48:17;24.40;99.90
35804;DHT22;21924;51.934;7.414;2022-08-01T14:51:01;23.90;99.90
35804;DHT22;21924;51.934;7.414;2022-08-01T14:53:46;23.50;99.90
35804;DHT22;21924;51.934;7.414;2022-08-01T14:56:30;23.30;99.90
35804;DHT22;21924;51.934;7.414;2022-08-01T14:59:14;23.20;99.90
35804;DHT22;21924;51.934;7.414;2022-08-01T15:01:58;23.10;99.90
35804;DHT22;21924;51.934;7.414;2022-08-01T15:04:43;23.40;99.90
35804;DHT22;21924;51.934;7.414;2022-08-01T15:07:27;23.80;99.90
35804;DHT22;21924;51.934;7.414;2022-08-01T15:10:11;24.00;99.90
35804;DHT22;21924;51.934;7.414;2022-08-01T15:12:55;24.10;99.90
35804;DHT22;21924;51.934;7.414;2022-08-01T15:15:39;24.80;99.90
35804;DHT22;21924;51.934;7.414;2022-08-01T15:18:23;25.10;99.90
35804;DHT22;21924;51.934;7.414;2022-08-01T15:21:07;25.00;99.90
35804;DHT22;21924;51.934;7.414;2022-08-01T15:23:51;24.50;99.90
35804;DHT22;21924;51.934;7.414;2022-08-01T15:26:35;24.20;99.90
35804;DHT22;21924;51.934;7.414;2022-08-01T15:29:19;23.90;99.90
35804;DHT22;21924;51.934;7.414;2022-08-01T15:32:04;23.60;99.90
35804;DHT22;21924;51.934;7.414;2022-08-01T15:34:48;23.50;99.90
35804;DHT22;21924;51.934;7.414;2022-08-01T15:37:32;23.60;99.90
35804;DHT22;21924;51.934;7.414;2022-08-01T15:40:16;23.50;99.90
35804;DHT22;21924;51.934;7.414;2022-08-01T15:43:00;23.40;99.90
35804;DHT22;21924;51.934;7.414;2022-08-01T15:45:44;23.40;99.90
35804;DHT22;21924;51.934;7.414;2022-08-01T15:48:28;23.30;99.90
35804;DHT22;21924;51.934;7.414;2022-08-01T15:51:12;23.10;99.90
35804;DHT22;21924;51.934;7.414;2022-08-01T15:53:57;22.90;99.90
35804;DHT22;21924;51.934;7.414;2022-08-01T15:56:41;22.70;99.90
35804;DHT22;21924;51.934;7.414;2022-08-01T15:59:25;22.60;99.90
35804;DHT22;21924;51.934;7.414;2022-08-01T16:02:10;22.60;99.90
35804;DHT22;21924;51.934;7.414;2022-08-01T16:04:54;22.50;99.90
35804;DHT22;21924;51.934;7.414;2022-08-01T16:07:38;22.50;99.90
35804;DHT22;21924;51.934;7.414;2022-08-01T16:10:22;22.60;99.90
35804;DHT22;21924;51.934;7.414;2022-08-01T16:13:06;22.70;99.90
35804;DHT22;21924;51.934;7.414;2022-08-01T16:15:50;22.80;99.90
35804;DHT22;21924;51.934;7.414;2022-08-01T16:18:34;22.80;99.90
35804;DHT22;21924;51.934;7.414;2022-08-01T16:21:18;22.90;99.90
35804;DHT22;21924;51.934;7.414;2022-08-01T16:24:02;22.90;99.90
35804;DHT22;21924;51.934;7.414;2022-08-01T16:26:47;22.80;99.90
35804;DHT22;21924;51.934;7.414;2022-08-01T16:29:31;22.70;99.90
35804;DHT22;21924;51.934;7.414;2022-08-01T16:32:15;22.60;99.90
35804;DHT22;21924;51.934;7.414;2022-08-01T16:34:59;22.60;99.90
35804;DHT22;21924;51.934;7.414;2022-08-01T16:37:43;22.40;99.90
35804;DHT22;21924;51.934;7.414;2022-08-01T16:40:27;22.40;99.90
35804;DHT22;21924;51.934;7.414;2022-08-01T16:43:11;22.40;99.90
35804;DHT22;21924;51.934;7.414;2022-08-01T16:45:55;22.30;99.90
35804;DHT22;21924;51.934;7.414;2022-08-01T16:48:40;22.20;99.90
35804;DHT22;21924;51.934;7.414;2022-08-01T16:51:25;22.10;99.90
35804;DHT22;21924;51.934;7.414;2022-08-01T16:54:10;22.00;99.90
35804;DHT22;21924;51.934;7.414;2022-08-01T16:56:54;22.10;99.90
35804;DHT22;21924;51.934;7.414;2022-08-01T16:59:38;22.30;99.90
35804;DHT22;21924;51.934;7.414;2022-08-01T17:02:22;22.40;99.90
35804;DHT22;21924;51.934;7.414;2022-08-01T17:05:07;22.40;99.90
35804;DHT22;21924;51.934;7.414;2022-08-01T17:07:52;22.40;99.90
35804;DHT22;21924;51.934;7.414;2022-08-01T17:10:36;22.30;99.90
35804;DHT22;21924;51.934;7.414;2022-08-01T17:13:21;22.30;99.90
35804;DHT22;21924;51.934;7.414;2022-08-01T17:16:07;22.10;99.90
35804;DHT22;21924;51.934;7.414;2022-08-01T17:18:51;22.00;99.90
35804;DHT22;21924;51.934;7.414;2022-08-01T17:21:35;21.90;99.90
35804;DHT22;21924;51.934;7.414;2022-08-01T17:24:19;21.90;99.90
35804;DHT22;21924;51.934;7.414;2022-08-01T17:27:03;21.80;99.90
35804;DHT22;21924;51.934;7.414;2022-08-01T17:29:47;21.70;99.90
35804;DHT22;21924;51.934;7.414;2022-08-01T17:32:31;21.60;99.90
35804;DHT22;21924;51.934;7.414;2022-08-01T17:35:17;21.50;99.90
35804;DHT22;21924;51.934;7.414;2022-08-01T17:38:02;21.50;99.90
35804;DHT22;21924;51.934;7.414;2022-08-01T17:40:46;21.30;99.90
35804;DHT22;21924;51.934;7.414;2022-08-01T17:43:30;21.20;99.90
35804;DHT22;21924;51.934;7.414;2022-08-01T17:46:14;21.10;99.90
35804;DHT22;21924;51.934;7.414;2022-08-01T17:48:59;20.90;99.90
35804;DHT22;21924;51.934;7.414;2022-08-01T17:51:46;20.70;99.90
35804;DHT22;21924;51.934;7.414;2022-08-01T17:54:31;20.70;99.90
35804;DHT22;21924;51.934;7.414;2022-08-01T17:57:15;20.50;99.90